Time;durP1;ratioP1;P1;durP2;ratioP2;P2;SDS_P1;SDS_P2;PMS_P1;PMS_P2;Temp;Humidity;BMP_temperature;BMP_pressure;BME280_temperature;BME280_humidity;BME280_pressure;Samples;Min_cycle;Max_cycle;Signal;HPM_P1;HPM_P2
2023/08/02 00:02:05;;;;;;;8.50;5.40;;;;;;;20.34;100.00;100032.47;110409;1235;61567;-76
2023/08/02 00:04:34;;;;;;;5.60;5.10;;;;;;;20.43;100.00;100025.08;110454;1235;74765;-75
2023/08/02 00:07:04;;;;;;;5.10;4.40;;;;;;;20.47;100.00;100027.61;110331;1235;61346;-75
2023/08/02 00:09:33;;;;;;;9.10;5.10;;;;;;;20.41;100.00;100024.57;110164;1235;59071;-76
2023/08/02 00:12:03;;;;;;;6.10;4.60;;;;;;;20.42;100.00;100018.52;110371;1235;63601;-74
2023/08/02 00:14:32;;;;;;;6.60;5.40;;;;;;;20.45;100.00;100014.80;110382;1235;62668;-77
2023/08/02 00:17:00;;;;;;;7.70;6.60;;;;;;;20.52;100.00;100013.74;110418;1235;60502;-74
2023/08/02 00:19:29;;;;;;;7.50;4.70;;;;;;;20.50;100.00;100011.23;110428;1238;64428;-74
2023/08/02 00:21:58;;;;;;;6.50;4.50;;;;;;;20.49;100.00;100008.98;110425;1235;61400;-74
2023/08/02 00:24:27;;;;;;;5.50;4.30;;;;;;;20.47;100.00;100007.21;110494;1234;69653;-75
2023/08/02 00:26:55;;;;;;;7.00;4.40;;;;;;;20.44;100.00;100004.23;110422;1235;73504;-79
2023/08/02 00:29:24;;;;;;;5.90;4.70;;;;;;;20.34;100.00;100000.92;110418;1235;58391;-79
2023/08/02 00:31:53;;;;;;;5.20;4.60;;;;;;;20.33;100.00;100003.89;110370;1235;60193;-79
2023/08/02 00:34:21;;;;;;;5.00;4.50;;;;;;;20.28;100.00;100005.35;110365;1235;74215;-79
2023/08/02 00:36:50;;;;;;;5.80;4.10;;;;;;;20.26;100.00;100005.72;110175;1235;61969;-80
2023/08/02 00:39:19;;;;;;;6.40;4.50;;;;;;;20.26;100.00;100000.82;110244;1235;69444;-80
2023/08/02 00:41:48;;;;;;;7.80;4.80;;;;;;;20.29;100.00;100006.66;110282;1235;64022;-74
2023/08/02 00:44:17;;;;;;;7.50;4.80;;;;;;;20.31;100.00;100007.22;110428;1238;58330;-78
2023/08/02 00:46:46;;;;;;;5.20;4.20;;;;;;;20.35;100.00;100003.20;110267;1238;60698;-78
2023/08/02 00:49:15;;;;;;;5.70;4.80;;;;;;;20.34;100.00;100004.10;110318;1235;65000;-77
2023/08/02 00:51:44;;;;;;;6.00;4.30;;;;;;;20.40;100.00;100007.45;110144;1235;61424;-77
2023/08/02 00:54:13;;;;;;;5.90;4.40;;;;;;;20.42;100.00;100011.46;110278;1235;59107;-76
2023/08/02 00:56:43;;;;;;;5.50;4.40;;;;;;;20.45;100.00;100010.73;110264;1236;63183;-74
2023/08/02 00:59:11;;;;;;;5.20;4.20;;;;;;;20.50;100.00;100006.84;110286;1238;62088;-74
2023/08/02 01:01:40;;;;;;;6.70;4.60;;;;;;;20.52;100.00;100005.90;110273;1235;58789;-76
2023/08/02 01:04:10;;;;;;;6.50;4.40;;;;;;;20.56;100.00;100006.42;110417;1235;62974;-76
2023/08/02 01:06:49;;;;;;;5.70;4.90;;;;;;;20.61;100.00;100003.57;110270;1235;61615;-76
2023/08/02 01:09:46;;;;;;;6.50;5.50;;;;;;;20.68;100.00;100003.17;110214;1235;70342;-76
2023/08/02 01:12:19;;;;;;;8.50;5.20;;;;;;;20.75;100.00;100001.02;110185;1235;73308;-75
2023/08/02 01:14:57;;;;;;;5.00;4.30;;;;;;;20.76;100.00;99999.34;110356;1235;58301;-76
2023/08/02 01:17:27;;;;;;;5.20;4.20;;;;;;;20.76;100.00;99999.48;110345;1235;58353;-75
2023/08/02 01:20:06;;;;;;;6.70;4.20;;;;;;;20.75;100.00;99998.44;110442;1235;73380;-75
2023/08/02 01:22:35;;;;;;;5.80;4.70;;;;;;;20.72;100.00;99996.91;110407;1235;61087;-75
2023/08/02 01:25:05;;;;;;;5.30;4.50;;;;;;;20.69;100.00;99995.13;110430;1235;59956;-75
2023/08/02 01:27:42;;;;;;;5.50;4.30;;;;;;;20.68;100.00;99993.69;110173;1235;62238;-75
2023/08/02 01:30:16;;;;;;;6.50;4.80;;;;;;;20.65;100.00;99992.05;110292;1236;62092;-75
2023/08/02 01:32:45;;;;;;;5.60;4.80;;;;;;;20.63;100.00;99992.08;110305;1235;58501;-75
2023/08/02 01:35:17;;;;;;;6.30;5.00;;;;;;;20.62;100.00;99991.00;110163;1235;74286;-75
2023/08/02 01:37:48;;;;;;;6.40;4.10;;;;;;;20.59;100.00;99989.91;110151;1235;61000;-75
2023/08/02 01:40:17;;;;;;;6.60;5.20;;;;;;;20.57;100.00;99986.55;110405;1235;70421;-75
2023/08/02 01:42:46;;;;;;;5.80;4.30;;;;;;;20.58;100.00;99983.92;110274;1235;62321;-75
2023/08/02 01:45:15;;;;;;;5.50;4.50;;;;;;;20.59;100.00;99989.33;110328;1238;58660;-75
2023/08/02 01:47:47;;;;;;;8.20;4.50;;;;;;;20.60;100.00;99990.34;110413;1235;60736;-75
2023/08/02 01:50:17;;;;;;;6.20;4.30;;;;;;;20.59;100.00;99991.23;110325;1235;73838;-75
2023/08/02 01:52:48;;;;;;;4.90;4.10;;;;;;;20.60;100.00;99985.20;110285;1235;71675;-76
2023/08/02 01:55:18;;;;;;;6.60;4.60;;;;;;;20.64;100.00;99988.36;110275;1235;69962;-75
2023/08/02 01:57:47;;;;;;;8.10;4.00;;;;;;;20.62;100.00;99977.45;110031;1236;74173;-75
2023/08/02 02:00:15;;;;;;;6.70;4.50;;;;;;;20.67;100.00;99982.92;110299;1238;63243;-75
2023/08/02 02:02:45;;;;;;;6.90;4.40;;;;;;;20.71;100.00;99984.05;110315;1235;58607;-76
2023/08/02 02:05:14;;;;;;;6.30;4.70;;;;;;;20.72;100.00;99980.21;110149;1235;63714;-75
2023/08/02 02:07:43;;;;;;;4.90;4.40;;;;;;;20.77;100.00;99979.92;110307;1235;60728;-73
2023/08/02 02:10:12;;;;;;;6.60;4.40;;;;;;;20.79;100.00;99978.95;110309;1235;58951;-73
2023/08/02 02:12:41;;;;;;;8.20;4.30;;;;;;;20.78;100.00;99976.83;110163;1235;73789;-73
2023/08/02 02:15:10;;;;;;;5.00;4.50;;;;;;;20.79;100.00;99974.70;110304;1235;58189;-73
2023/08/02 02:17:39;;;;;;;5.20;4.10;;;;;;;20.79;100.00;99971.40;110282;1235;57737;-74
2023/08/02 02:20:10;;;;;;;5.50;4.20;;;;;;;20.76;100.00;99975.70;110112;1235;75665;-73
2023/08/02 02:22:39;;;;;;;5.40;4.60;;;;;;;20.76;100.00;99976.73;110372;1235;73277;-75
2023/08/02 02:25:08;;;;;;;7.90;4.50;;;;;;;20.77;100.00;99977.11;109925;1235;69609;-75
2023/08/02 02:27:37;;;;;;;5.40;4.90;;;;;;;20.77;100.00;99980.83;110123;1238;62582;-75
2023/08/02 02:30:07;;;;;;;6.50;4.80;;;;;;;20.79;100.00;99979.80;110191;1235;57762;-74
2023/08/02 02:32:35;;;;;;;4.80;4.30;;;;;;;20.82;100.00;99979.16;110132;1236;60132;-74
2023/08/02 02:35:05;;;;;;;5.80;4.50;;;;;;;20.83;100.00;99977.35;110069;1237;74243;-74
2023/08/02 02:37:34;;;;;;;7.10;4.90;;;;;;;20.85;100.00;99973.55;110108;1235;62190;-74
2023/08/02 02:40:04;;;;;;;6.70;4.70;;;;;;;20.86;100.00;99973.67;109933;1235;59842;-74
2023/08/02 02:42:33;;;;;;;5.90;4.90;;;;;;;20.84;100.00;99972.86;109989;1238;62279;-74
2023/08/02 02:45:03;;;;;;;8.10;4.90;;;;;;;20.82;100.00;99976.03;109890;1240;62109;-73
2023/08/02 02:47:32;;;;;;;6.00;5.30;;;;;;;20.81;100.00;99980.10;110039;1238;58271;-75
2023/08/02 02:50:01;;;;;;;6.60;4.30;;;;;;;20.82;100.00;99980.23;110198;1235;74157;-75
2023/08/02 02:52:29;;;;;;;6.70;4.60;;;;;;;20.84;100.00;99982.21;110253;1235;72444;-76
2023/08/02 02:54:58;;;;;;;6.10;4.80;;;;;;;20.88;100.00;99977.74;110171;1235;60464;-74
2023/08/02 02:57:27;;;;;;;6.20;4.90;;;;;;;20.95;100.00;99975.21;110270;1235;63795;-73
2023/08/02 02:59:56;;;;;;;8.60;4.50;;;;;;;21.00;100.00;99976.80;110227;1235;61275;-75
2023/08/02 03:02:24;;;;;;;7.70;4.50;;;;;;;21.04;100.00;99978.97;110365;1235;60803;-76
2023/08/02 03:04:53;;;;;;;5.70;4.90;;;;;;;21.06;100.00;99981.11;110388;1235;73904;-75
2023/08/02 03:07:22;;;;;;;5.90;4.20;;;;;;;21.09;100.00;99982.51;110309;1235;61905;-75
2023/08/02 03:09:51;;;;;;;7.20;4.60;;;;;;;21.14;100.00;99981.34;110390;1238;59942;-75
2023/08/02 03:12:20;;;;;;;6.40;4.70;;;;;;;21.17;100.00;99977.93;110272;1235;73008;-76
2023/08/02 03:14:49;;;;;;;10.80;4.80;;;;;;;21.17;100.00;99968.41;110342;1237;63323;-76
2023/08/02 03:17:18;;;;;;;7.20;5.20;;;;;;;21.27;100.00;99984.48;110362;1235;62384;-75
2023/08/02 03:19:47;;;;;;;5.60;4.60;;;;;;;21.31;100.00;99985.29;110394;1235;74341;-76
2023/08/02 03:22:15;;;;;;;7.40;5.80;;;;;;;21.32;100.00;99986.88;110449;1234;71790;-73
2023/08/02 03:24:44;;;;;;;7.30;5.40;;;;;;;21.35;100.00;99989.68;110356;1235;70712;-74
2023/08/02 03:27:13;;;;;;;8.20;4.90;;;;;;;21.39;100.00;99995.52;110315;1235;63934;-76
2023/08/02 03:29:42;;;;;;;8.80;4.70;;;;;;;21.41;100.00;99995.23;110119;1239;57740;-76
2023/08/02 03:32:11;;;;;;;8.90;5.10;;;;;;;21.46;100.00;99994.02;110320;1235;60960;-74
2023/08/02 03:34:39;;;;;;;14.50;9.80;;;;;;;21.50;100.00;99992.03;110287;1235;75499;-76
2023/08/02 03:37:08;;;;;;;13.00;5.80;;;;;;;21.54;100.00;99991.30;110266;1237;61359;-75
2023/08/02 03:39:37;;;;;;;11.60;5.80;;;;;;;21.60;100.00;99983.48;110240;1237;60295;-75
2023/08/02 03:42:07;;;;;;;6.80;4.90;;;;;;;21.67;100.00;99980.67;110314;1235;62311;-76
2023/08/02 03:44:35;;;;;;;8.10;5.70;;;;;;;21.71;100.00;99972.02;110338;1235;61834;-75
2023/08/02 03:47:05;;;;;;;10.40;6.60;;;;;;;21.81;100.00;99973.74;110292;1236;57750;-75
2023/08/02 03:49:35;;;;;;;8.80;5.80;;;;;;;21.87;100.00;99976.55;110042;1235;73771;-76
2023/08/02 03:52:04;;;;;;;10.00;5.30;;;;;;;21.92;100.00;99975.00;110255;1235;71186;-75
2023/08/02 03:54:33;;;;;;;9.60;5.20;;;;;;;21.94;100.00;99978.00;110154;1238;70923;-74
2023/08/02 03:57:01;;;;;;;7.70;4.80;;;;;;;21.93;100.00;99971.35;110002;1238;74161;-75
2023/08/02 03:59:30;;;;;;;11.10;5.40;;;;;;;21.93;100.00;99969.95;110289;1239;57838;-76
2023/08/02 04:01:59;;;;;;;9.80;5.20;;;;;;;21.97;100.00;99973.56;110281;1235;58472;-75
2023/08/02 04:04:28;;;;;;;11.20;5.70;;;;;;;22.03;100.00;99972.84;110326;1238;63333;-76
2023/08/02 04:06:57;;;;;;;7.30;5.30;;;;;;;22.09;100.00;99974.10;110312;1235;71997;-75
2023/08/02 04:09:25;;;;;;;6.40;4.80;;;;;;;22.11;100.00;99979.67;110201;1235;71518;-75
2023/08/02 04:11:54;;;;;;;8.10;5.20;;;;;;;22.17;100.00;99981.69;110254;1235;63543;-75
2023/08/02 04:14:23;;;;;;;9.50;5.70;;;;;;;22.20;100.00;99978.33;110259;1238;58340;-76
2023/08/02 04:16:52;;;;;;;10.50;5.50;;;;;;;22.23;100.00;99976.20;110214;1235;57853;-76
2023/08/02 04:19:21;;;;;;;9.80;5.70;;;;;;;22.25;100.00;99976.86;110052;1235;73521;-76
2023/08/02 04:21:49;;;;;;;8.40;5.50;;;;;;;22.26;100.00;99978.83;110190;1235;72530;-74
2023/08/02 04:24:19;;;;;;;10.50;6.00;;;;;;;22.35;100.00;99980.34;110177;1235;70445;-72
2023/08/02 04:26:47;;;;;;;8.30;5.50;;;;;;;22.32;100.00;99980.88;110299;1235;74146;-72
2023/08/02 04:29:16;;;;;;;9.00;5.50;;;;;;;22.36;100.00;99982.63;110321;1238;57857;-76
2023/08/02 04:31:45;;;;;;;8.40;6.10;;;;;;;22.39;100.00;99984.14;110142;1239;58243;-77
2023/08/02 04:34:14;;;;;;;8.50;5.50;;;;;;;22.50;100.00;99982.50;110413;1239;63878;-76
2023/08/02 04:36:43;;;;;;;9.30;5.90;;;;;;;22.53;100.00;99980.38;110353;1238;61423;-74
2023/08/02 04:39:15;;;;;;;10.50;6.30;;;;;;;22.55;100.00;99979.58;110308;1235;69809;-75
2023/08/02 04:41:44;;;;;;;10.80;5.90;;;;;;;22.53;100.00;99975.79;110399;1235;74172;-75
2023/08/02 04:44:12;;;;;;;8.10;5.70;;;;;;;22.53;100.00;99972.34;110404;1238;62185;-76
2023/08/02 04:46:41;;;;;;;9.20;5.80;;;;;;;22.53;100.00;99970.83;110401;1238;57719;-77
2023/08/02 04:49:11;;;;;;;8.00;5.50;;;;;;;22.55;100.00;99969.11;110306;1235;74432;-77
2023/08/02 04:51:39;;;;;;;12.30;6.90;;;;;;;22.62;100.00;99975.07;110326;1235;71729;-73
2023/08/02 04:54:08;;;;;;;7.50;5.80;;;;;;;22.57;100.00;99979.75;110378;1235;70768;-76
2023/08/02 04:56:40;;;;;;;11.20;6.20;;;;;;;22.50;100.00;99982.13;110289;1239;63687;-76
2023/08/02 04:59:10;;;;;;;;;;;;;;;22.38;100.00;99987.25;110238;1238;62192;-74
2023/08/02 05:01:39;;;;;;;9.80;6.00;;;;;;;22.31;100.00;99991.30;110174;1239;58275;-72
2023/08/02 05:04:09;;;;;;;7.50;5.50;;;;;;;22.32;100.00;99995.31;110133;1239;62982;-77
2023/08/02 05:06:38;;;;;;;7.60;5.60;;;;;;;22.38;100.00;99994.00;110363;1239;62287;-74
2023/08/02 05:09:07;;;;;;;8.70;6.10;;;;;;;22.43;100.00;99987.61;110376;1239;58993;-74
2023/08/02 05:11:38;;;;;;;8.70;6.10;;;;;;;22.53;100.00;99982.48;110263;1239;62322;-73
2023/08/02 05:14:07;;;;;;;8.80;6.40;;;;;;;22.62;100.00;99975.89;110295;1237;62049;-75
2023/08/02 05:16:36;;;;;;;11.20;6.40;;;;;;;22.72;100.00;99973.30;110125;1239;61291;-77
2023/08/02 05:19:05;;;;;;;9.40;5.60;;;;;;;22.80;100.00;99970.81;109890;1239;74294;-72
2023/08/02 05:21:34;;;;;;;9.10;6.00;;;;;;;22.92;100.00;99969.95;110124;1237;61968;-81
2023/08/02 05:24:03;;;;;;;10.80;6.30;;;;;;;22.99;100.00;99970.89;109934;1239;59812;-75
2023/08/02 05:26:32;;;;;;;9.10;5.90;;;;;;;23.11;100.00;99965.31;110000;1240;63114;-76
2023/08/02 05:29:02;;;;;;;11.80;6.30;;;;;;;22.97;100.00;99963.14;110085;1238;62642;-76
2023/08/02 05:31:31;;;;;;;8.70;6.30;;;;;;;22.91;100.00;99962.80;110156;1239;58199;-74
2023/08/02 05:34:00;;;;;;;7.80;5.70;;;;;;;22.94;100.00;99967.30;110253;1238;63678;-75
2023/08/02 05:36:29;;;;;;;8.80;5.40;;;;;;;22.95;100.00;99968.52;110248;1239;61657;-80
2023/08/02 05:38:58;;;;;;;12.30;5.90;;;;;;;23.12;100.00;99971.30;110326;1238;59176;-84
2023/08/02 05:41:27;;;;;;;8.70;6.20;;;;;;;23.20;100.00;99967.70;110201;1235;73828;-67
2023/08/02 05:43:56;;;;;;;10.30;5.30;;;;;;;23.36;100.00;99964.02;110005;1235;63361;-68
2023/08/02 05:46:24;;;;;;;8.50;6.10;;;;;;;23.40;100.00;99962.20;110304;1235;57767;-67
2023/08/02 05:48:53;;;;;;;8.60;6.20;;;;;;;23.68;100.00;99963.46;110198;1237;74410;-67
2023/08/02 05:51:23;;;;;;;9.10;5.40;;;;;;;23.84;100.00;99966.52;110340;1235;61381;-67
2023/08/02 05:53:53;;;;;;;16.00;5.50;;;;;;;24.10;100.00;99965.73;110102;1235;69732;-68
2023/08/02 05:56:21;;;;;;;5.90;4.80;;;;;;;24.35;100.00;99968.41;110252;1235;73419;-66
2023/08/02 05:58:51;;;;;;;8.00;5.00;;;;;;;24.46;100.00;99961.73;110340;1238;57806;-68
2023/08/02 06:01:19;;;;;;;8.40;4.50;;;;;;;24.68;100.00;99960.52;110084;1235;60902;-68
2023/08/02 06:03:48;;;;;;;7.60;5.00;;;;;;;24.90;100.00;99958.73;110237;1236;74818;-68
2023/08/02 06:06:17;;;;;;;9.10;4.30;;;;;;;25.06;100.00;99955.56;110350;1235;62311;-68
2023/08/02 06:08:47;;;;;;;5.60;4.80;;;;;;;25.16;100.00;99951.02;110352;1235;59753;-69
2023/08/02 06:11:15;;;;;;;7.00;4.90;;;;;;;25.12;100.00;99950.73;110341;1235;73614;-68
2023/08/02 06:13:44;;;;;;;9.40;4.70;;;;;;;25.08;100.00;99953.87;110333;1235;60540;-67
2023/08/02 06:16:13;;;;;;;8.40;4.70;;;;;;;25.04;100.00;99952.91;110339;1235;58304;-68
2023/08/02 06:18:42;;;;;;;7.60;4.90;;;;;;;24.96;100.00;99955.09;110219;1235;63856;-68
2023/08/02 06:21:11;;;;;;;9.50;4.70;;;;;;;25.05;100.00;99952.43;110266;1235;61588;-66
2023/08/02 06:23:40;;;;;;;8.30;5.20;;;;;;;25.34;100.00;99953.70;110256;1235;70392;-68
2023/08/02 06:26:09;;;;;;;7.80;5.00;;;;;;;25.45;100.00;99957.73;110285;1234;63655;-68
2023/08/02 06:28:39;;;;;;;8.20;4.10;;;;;;;25.26;100.00;99958.93;110329;1237;61026;-67
2023/08/02 06:31:07;;;;;;;9.10;4.60;;;;;;;25.32;100.00;99962.04;110321;1237;58264;-67
2023/08/02 06:33:36;;;;;;;12.50;5.20;;;;;;;25.62;100.00;99962.59;110374;1235;64179;-67
2023/08/02 06:36:05;;;;;;;9.50;5.30;;;;;;;25.67;100.00;99962.06;110265;1235;61400;-67
2023/08/02 06:38:33;;;;;;;8.80;4.60;;;;;;;25.71;100.00;99962.88;110357;1237;69427;-66
2023/08/02 06:41:03;;;;;;;6.40;4.60;;;;;;;25.82;100.00;99956.30;110344;1235;63614;-67
2023/08/02 06:43:32;;;;;;;14.40;4.80;;;;;;;25.85;100.00;99964.26;110343;1238;57799;-68
2023/08/02 06:46:00;;;;;;;11.20;5.10;;;;;;;25.88;100.00;99966.48;110255;1235;61529;-67
2023/08/02 06:48:29;;;;;;;11.00;4.80;;;;;;;25.76;100.00;99970.73;110392;1235;64350;-67
2023/08/02 06:51:00;;;;;;;19.80;5.60;;;;;;;25.84;100.00;99971.14;110364;1234;70214;-68
2023/08/02 06:53:29;;;;;;;13.30;4.50;;;;;;;25.87;100.00;99971.84;110277;1235;70349;-64
2023/08/02 06:55:57;;;;;;;6.90;4.40;;;;;;;25.84;100.00;99972.85;110338;1235;63454;-67
2023/08/02 06:58:26;;;;;;;9.00;5.00;;;;;;;25.60;100.00;99970.80;110331;1235;57763;-64
2023/08/02 07:00:55;;;;;;;9.10;4.70;;;;;;;25.69;100.00;99962.86;110306;1237;60925;-66
2023/08/02 07:03:24;;;;;;;9.30;5.10;;;;;;;25.75;100.00;99970.60;110390;1235;65822;-70
2023/08/02 07:05:53;;;;;;;6.70;4.40;;;;;;;25.84;100.00;99974.75;110333;1235;62239;-68
2023/08/02 07:08:22;;;;;;;7.50;4.80;;;;;;;25.90;100.00;99974.71;110404;1235;60364;-67
2023/08/02 07:10:51;;;;;;;7.20;4.40;;;;;;;26.24;100.00;99975.59;110331;1235;62471;-68
2023/08/02 07:13:20;;;;;;;7.60;4.60;;;;;;;26.48;100.00;99975.20;110324;1235;58253;-67
2023/08/02 07:15:49;;;;;;;12.90;4.60;;;;;;;26.64;100.00;99972.70;110332;1235;57684;-67
2023/08/02 07:18:17;;;;;;;9.80;4.60;;;;;;;26.71;99.81;99966.48;110330;1235;74807;-67
2023/08/02 07:20:46;;;;;;;13.80;4.90;;;;;;;26.50;100.00;99964.78;110317;1235;62613;-67
2023/08/02 07:23:15;;;;;;;8.90;4.90;;;;;;;26.48;100.00;99966.35;110075;1238;59980;-67
2023/08/02 07:25:45;;;;;;;13.40;5.60;;;;;;;26.58;100.00;99966.20;110285;1235;62437;-68
2023/08/02 07:28:13;;;;;;;10.60;5.00;;;;;;;26.52;100.00;99962.71;110218;1238;60191;-67
2023/08/02 07:30:42;;;;;;;8.50;4.60;;;;;;;26.39;100.00;99967.02;110345;1235;58170;-67
2023/08/02 07:33:12;;;;;;;7.50;4.90;;;;;;;26.47;100.00;99964.02;110293;1235;74417;-68
2023/08/02 07:35:41;;;;;;;6.90;5.00;;;;;;;26.64;100.00;99963.42;109999;1235;62774;-68
2023/08/02 07:38:10;;;;;;;7.20;4.30;;;;;;;26.78;99.93;99965.30;110127;1235;70041;-67
2023/08/02 07:40:39;;;;;;;8.10;5.10;;;;;;;27.05;99.39;99968.52;110238;1235;74072;-68
2023/08/02 07:43:08;;;;;;;7.40;4.50;;;;;;;27.11;98.60;99968.77;110167;1238;61093;-68
2023/08/02 07:45:36;;;;;;;9.50;4.60;;;;;;;27.27;98.55;99966.98;110334;1235;57744;-67
2023/08/02 07:48:05;;;;;;;6.00;4.10;;;;;;;27.49;97.20;99965.04;110229;1235;63753;-68
2023/08/02 07:50:34;;;;;;;8.90;4.90;;;;;;;27.62;94.59;99968.08;110335;1235;61504;-67
2023/08/02 07:53:03;;;;;;;6.50;4.70;;;;;;;27.37;95.48;99967.29;110257;1235;59243;-67
2023/08/02 07:55:32;;;;;;;7.30;4.80;;;;;;;27.25;96.58;99968.45;110281;1238;73783;-68
2023/08/02 07:58:00;;;;;;;5.60;4.40;;;;;;;27.74;95.25;99970.23;109856;1235;360079;-68
2023/08/02 08:00:29;;;;;;;7.80;4.50;;;;;;;27.82;93.79;99967.33;110229;1238;58338;-70
2023/08/02 08:02:58;;;;;;;8.60;4.80;;;;;;;27.74;94.33;99962.94;110158;1235;63606;-68
2023/08/02 08:05:29;;;;;;;8.80;4.30;;;;;;;27.91;92.37;99966.85;110131;1235;70518;-67
2023/08/02 08:07:58;;;;;;;5.10;4.20;;;;;;;27.78;93.27;99973.42;110086;1235;59559;-69
2023/08/02 08:10:27;;;;;;;9.20;4.20;;;;;;;27.93;93.40;99974.98;110320;1235;63907;-67
2023/08/02 08:12:56;;;;;;;8.00;5.30;;;;;;;27.76;94.49;99970.07;110337;1235;60233;-67
2023/08/02 08:15:24;;;;;;;5.60;4.60;;;;;;;27.68;95.13;99975.08;110306;1235;61586;-67
2023/08/02 08:17:54;;;;;;;6.50;4.20;;;;;;;28.07;92.47;99979.94;110222;1235;64771;-68
2023/08/02 08:20:23;;;;;;;8.00;4.80;;;;;;;28.08;91.78;99983.50;110184;1234;61557;-68
2023/08/02 08:22:52;;;;;;;5.00;3.90;;;;;;;28.12;91.63;99984.97;110304;1235;60046;-69
2023/08/02 08:25:21;;;;;;;6.20;4.30;;;;;;;28.13;91.27;99983.76;110259;1236;73072;-68
2023/08/02 08:27:50;;;;;;;6.70;4.60;;;;;;;27.97;92.83;99988.14;110250;1235;60144;-68
2023/08/02 08:30:18;;;;;;;5.40;4.40;;;;;;;28.19;91.78;99991.30;110198;1235;60523;-66
2023/08/02 08:32:47;;;;;;;6.00;4.10;;;;;;;28.31;90.68;99994.73;110305;1235;63565;-67
2023/08/02 08:35:16;;;;;;;7.70;4.10;;;;;;;28.42;89.54;99993.90;110330;1235;61400;-67
2023/08/02 08:37:48;;;;;;;6.90;4.60;;;;;;;28.36;89.58;99993.90;110239;1238;59838;-66
2023/08/02 08:40:18;;;;;;;7.10;4.30;;;;;;;28.37;90.27;99995.21;110309;1235;65823;-72
2023/08/02 08:42:51;;;;;;;6.60;3.90;;;;;;;28.39;90.14;99992.02;110177;1235;60666;-70
2023/08/02 08:45:23;;;;;;;7.50;4.40;;;;;;;28.30;91.04;99994.52;109950;1235;58251;-70
2023/08/02 08:47:53;;;;;;;7.50;4.60;;;;;;;28.29;91.94;99995.23;110031;1235;64206;-70
2023/08/02 08:50:22;;;;;;;8.10;4.60;;;;;;;28.60;90.83;99994.70;109935;1235;62755;-70
2023/08/02 08:52:53;;;;;;;4.90;4.20;;;;;;;28.83;88.34;99991.15;110230;1235;69965;-69
2023/08/02 08:55:31;;;;;;;8.40;4.80;;;;;;;28.94;86.67;99990.35;110114;1235;73777;-71
2023/08/02 08:58:00;;;;;;;10.40;4.70;;;;;;;28.92;87.47;99992.27;109892;1238;58106;-69
2023/08/02 09:00:38;;;;;;;7.30;4.40;;;;;;;28.92;84.59;99986.19;110117;1235;58217;-69
2023/08/02 09:03:08;;;;;;;5.30;3.90;;;;;;;28.93;83.24;99988.85;110053;1235;62928;-69
2023/08/02 09:05:37;;;;;;;7.50;4.50;;;;;;;28.94;80.13;99997.71;110140;1235;64084;-68
2023/08/02 09:08:06;;;;;;;8.00;4.50;;;;;;;28.93;77.48;100000.73;110060;1238;60100;-68
2023/08/02 09:10:35;;;;;;;6.50;3.90;;;;;;;28.84;76.05;99993.98;109913;1235;73707;-67
2023/08/02 09:13:04;;;;;;;5.30;3.40;;;;;;;28.71;75.10;100003.09;110141;1235;60210;-69
2023/08/02 09:15:33;;;;;;;5.70;3.80;;;;;;;28.68;75.03;100003.05;110197;1235;57822;-69
2023/08/02 09:18:01;;;;;;;5.10;4.40;;;;;;;28.62;74.39;100006.55;110192;1235;74496;-69
2023/08/02 09:20:31;;;;;;;5.80;4.50;;;;;;;28.57;73.86;100010.04;110035;1235;62843;-69
2023/08/02 09:23:14;;;;;;;9.70;5.00;;;;;;;28.35;74.50;100009.25;110135;1235;70797;-69
2023/08/02 09:25:43;;;;;;;7.50;3.90;;;;;;;28.32;74.76;100010.81;110072;1235;62852;-71
2023/08/02 09:28:12;;;;;;;11.20;4.50;;;;;;;28.29;75.17;100014.39;110375;1235;58376;-72
2023/08/02 09:30:41;;;;;;;6.30;3.70;;;;;;;28.32;75.02;100018.92;110398;1235;58393;-71
2023/08/02 09:33:11;;;;;;;5.90;3.10;;;;;;;28.20;71.77;100033.31;110129;1235;74245;-71
2023/08/02 09:35:47;;;;;;;3.90;2.60;;;;;;;28.17;67.81;100037.77;110182;1239;62058;-70
2023/08/02 09:38:17;;;;;;;4.40;2.20;;;;;;;28.17;63.56;100039.92;110384;1235;69446;-69
2023/08/02 09:40:47;;;;;;;6.50;2.20;;;;;;;28.08;62.58;100042.83;110369;1235;75110;-69
2023/08/02 09:43:19;;;;;;;3.20;2.30;;;;;;;28.07;63.30;100045.92;110021;1238;58296;-69
2023/08/02 09:45:48;;;;;;;4.20;2.50;;;;;;;28.11;63.29;100055.62;110256;1235;60162;-69
2023/08/02 09:48:17;;;;;;;5.20;2.60;;;;;;;28.13;63.39;100060.48;110213;1238;63825;-69
2023/08/02 09:50:55;;;;;;;6.00;2.30;;;;;;;28.08;64.32;100057.48;110318;1235;61645;-69
2023/08/02 09:53:25;;;;;;;4.40;2.60;;;;;;;28.09;65.41;100061.70;110378;1234;71648;-70
2023/08/02 09:55:56;;;;;;;6.50;4.00;;;;;;;28.13;64.07;100063.70;110080;1235;65590;-69
2023/08/02 09:58:27;;;;;;;5.70;3.10;;;;;;;28.09;64.09;100062.61;110319;1235;61419;-70
2023/08/02 10:00:57;;;;;;;3.10;2.20;;;;;;;27.93;65.41;100059.14;110215;1238;57698;-70
2023/08/02 10:03:27;;;;;;;3.90;2.40;;;;;;;27.75;66.59;100056.98;110316;1236;63723;-71
2023/08/02 10:06:03;;;;;;;3.30;2.50;;;;;;;27.68;66.55;100061.51;110260;1235;72110;-71
2023/08/02 10:08:36;;;;;;;3.00;2.40;;;;;;;27.50;66.83;100066.50;110146;1238;60713;-72
2023/08/02 10:11:06;;;;;;;4.80;3.10;;;;;;;27.37;66.56;100082.77;110204;1235;72186;-72
2023/08/02 10:13:40;;;;;;;7.20;3.60;;;;;;;27.26;67.45;100090.73;110207;1235;58106;-71
2023/08/02 10:16:09;;;;;;;5.50;2.90;;;;;;;27.07;69.99;100103.45;110083;1235;61584;-70
2023/08/02 10:18:43;;;;;;;5.00;2.80;;;;;;;26.78;72.36;100110.61;110160;1235;66307;-69
2023/08/02 10:21:15;;;;;;;7.50;3.30;;;;;;;26.42;75.67;100115.06;110218;1238;61111;-69
2023/08/02 10:23:45;;;;;;;6.30;3.40;;;;;;;26.07;78.06;100116.28;110274;1238;59895;-69
2023/08/02 10:26:15;;;;;;;5.60;3.40;;;;;;;25.72;80.90;100105.45;110240;1238;62471;-70
2023/08/02 10:28:45;;;;;;;3.80;3.20;;;;;;;25.57;82.19;100112.82;110208;1236;58402;-69
2023/08/02 10:31:14;;;;;;;3.70;2.90;;;;;;;25.33;83.85;100115.65;110145;1235;60981;-70
2023/08/02 10:33:43;;;;;;;6.30;3.30;;;;;;;24.97;87.12;100117.02;110248;1238;63430;-69
2023/08/02 10:36:12;;;;;;;4.00;3.30;;;;;;;24.65;89.72;100118.88;110132;1236;60701;-69
2023/08/02 10:38:47;;;;;;;5.30;3.10;;;;;;;24.44;90.31;100131.17;110200;1238;68003;-70
2023/08/02 10:41:23;;;;;;;4.80;3.80;;;;;;;24.32;92.65;100137.59;110289;1238;73254;-75
2023/08/02 10:44:01;;;;;;;4.60;3.50;;;;;;;24.26;94.35;100145.51;110312;1236;57750;-74
2023/08/02 10:46:32;;;;;;;5.00;3.70;;;;;;;24.27;93.78;100156.75;110336;1235;61239;-74
2023/08/02 10:49:10;;;;;;;5.20;3.30;;;;;;;24.26;94.79;100160.45;110171;1235;64091;-75
2023/08/02 10:51:39;;;;;;;5.00;3.50;;;;;;;24.35;92.01;100161.29;110235;1235;72152;-75
2023/08/02 10:54:25;;;;;;;4.80;3.40;;;;;;;24.32;91.02;100156.15;109880;1241;60597;-75
2023/08/02 10:56:55;;;;;;;6.50;3.50;;;;;;;24.30;91.60;100161.17;110132;1235;73916;-74
2023/08/02 10:59:24;;;;;;;3.90;3.10;;;;;;;24.28;91.25;100158.31;110170;1237;61258;-71
2023/08/02 11:02:12;;;;;;;4.20;3.30;;;;;;;24.25;91.84;100165.93;110061;1235;58005;-70
2023/08/02 11:04:47;;;;;;;3.80;3.20;;;;;;;24.20;93.17;100167.38;109921;1239;63802;-71
2023/08/02 11:07:21;;;;;;;4.50;3.00;;;;;;;24.14;94.23;100178.73;109972;1238;61764;-71
2023/08/02 11:09:55;;;;;;;4.30;3.40;;;;;;;24.15;94.66;100183.13;109850;1239;59202;-72
2023/08/02 11:12:26;;;;;;;5.50;3.50;;;;;;;24.13;94.86;100191.30;109803;1241;63145;-71
2023/08/02 11:14:55;;;;;;;5.50;4.50;;;;;;;24.05;96.29;100188.83;110181;1235;59796;-72
2023/08/02 11:17:25;;;;;;;7.20;4.50;;;;;;;23.92;97.72;100186.63;110038;1235;60901;-77
2023/08/02 11:19:57;;;;;;;5.00;3.40;;;;;;;23.79;98.65;100194.50;109895;1235;75351;-74
2023/08/02 11:22:36;;;;;;;4.40;3.30;;;;;;;23.64;99.89;100202.27;110003;1239;62763;-74
2023/08/02 11:25:06;;;;;;;5.00;3.30;;;;;;;23.37;100.00;100210.27;109707;1235;69448;-74
2023/08/02 11:27:36;;;;;;;5.10;3.40;;;;;;;22.87;100.00;100203.22;110093;1235;74739;-75
2023/08/02 11:30:08;;;;;;;8.20;4.00;;;;;;;22.12;100.00;100183.69;110147;1235;61197;-75